createdAt,value
2019-03-01T00:01:55.223Z,9.28
2019-03-01T00:04:47.129Z,9.29
2019-03-01T00:08:11.698Z,9.20
2019-03-01T00:10:45.895Z,9.23
2019-03-01T00:13:34.946Z,9.13
2019-03-01T00:16:41.369Z,9.14
2019-03-01T00:19:42.356Z,9.02
2019-03-01T00:22:38.596Z,8.97
2019-03-01T00:25:12.771Z,9.00
2019-03-01T00:28:01.529Z,8.94
2019-03-01T00:30:56.482Z,8.92
2019-03-01T00:33:51.296Z,8.77
2019-03-01T00:36:49.095Z,8.74
2019-03-01T00:39:23.314Z,8.68
2019-03-01T00:42:02.923Z,8.80
2019-03-01T00:44:49.039Z,8.73
2019-03-01T00:47:18.603Z,8.71
2019-03-01T00:49:48.115Z,8.66
2019-03-01T00:52:17.665Z,8.71
2019-03-01T00:54:47.154Z,8.61
2019-03-01T00:57:16.772Z,8.68
2019-03-01T00:59:46.342Z,8.67
2019-03-01T01:02:15.968Z,8.61
2019-03-01T01:04:45.480Z,8.61
2019-03-01T01:07:14.974Z,8.55
2019-03-01T01:09:44.510Z,8.63
2019-03-01T01:12:14.074Z,8.52
2019-03-01T01:14:43.613Z,8.38
2019-03-01T01:17:13.113Z,8.36
2019-03-01T01:19:42.654Z,8.21
2019-03-01T01:22:12.152Z,8.23
2019-03-01T01:24:41.693Z,8.24
2019-03-01T01:27:11.230Z,8.21
2019-03-01T01:29:40.762Z,8.24
2019-03-01T01:32:10.263Z,8.33
2019-03-01T01:34:41.005Z,8.32
2019-03-01T01:37:10.509Z,8.31
2019-03-01T01:39:40.042Z,8.35
2019-03-01T01:42:09.538Z,8.31
2019-03-01T01:44:39.012Z,8.34
2019-03-01T01:47:09.620Z,8.45
2019-03-01T01:49:39.085Z,8.35
2019-03-01T01:52:08.584Z,8.29
2019-03-01T01:54:38.077Z,8.40
2019-03-01T01:57:07.613Z,8.37
2019-03-01T01:59:37.752Z,8.40
2019-03-01T02:02:07.288Z,8.41
2019-03-01T02:04:36.796Z,8.35
2019-03-01T02:07:06.394Z,8.38
2019-03-01T02:09:36.991Z,8.29
2019-03-01T02:12:07.403Z,8.31
2019-03-01T02:14:36.922Z,8.23
2019-03-01T02:17:06.440Z,8.33
2019-03-01T02:19:36.034Z,8.30
2019-03-01T02:22:05.566Z,8.08
2019-03-01T02:24:36.209Z,8.22
2019-03-01T02:27:26.115Z,8.26
2019-03-01T02:29:55.818Z,8.19
2019-03-01T02:32:40.959Z,8.12
2019-03-01T02:35:13.574Z,8.20
2019-03-01T02:37:43.131Z,8.24
2019-03-01T02:40:15.713Z,8.14
2019-03-01T02:42:45.322Z,8.19
2019-03-01T02:45:19.840Z,8.17
2019-03-01T02:47:49.373Z,8.14
2019-03-01T02:50:21.161Z,8.19
2019-03-01T02:52:50.641Z,8.21
2019-03-01T02:55:21.962Z,8.28
2019-03-01T02:57:51.482Z,8.33
2019-03-01T03:00:31.516Z,8.30
2019-03-01T03:03:01.078Z,8.28
2019-03-01T03:05:30.605Z,8.14
2019-03-01T03:08:01.986Z,8.07
2019-03-01T03:10:31.592Z,8.25
2019-03-01T03:13:04.401Z,8.23
2019-03-01T03:15:41.283Z,8.40
2019-03-01T03:18:10.811Z,8.32
2019-03-01T03:20:40.298Z,8.36
2019-03-01T03:23:09.810Z,8.35
2019-03-01T03:25:39.345Z,8.42
2019-03-01T03:28:08.877Z,8.40
2019-03-01T03:30:38.455Z,8.43
2019-03-01T03:33:07.992Z,8.51
2019-03-01T03:35:37.549Z,8.35
2019-03-01T03:38:07.045Z,8.53
2019-03-01T03:40:36.633Z,8.41
2019-03-01T03:43:06.213Z,8.47
2019-03-01T03:45:35.800Z,8.53
2019-03-01T03:48:05.291Z,8.60
2019-03-01T03:50:34.816Z,8.46
2019-03-01T03:53:04.443Z,8.41
2019-03-01T03:55:34.514Z,8.42
2019-03-01T03:58:04.173Z,8.42
2019-03-01T04:00:33.815Z,8.47
2019-03-01T04:03:03.413Z,8.54
2019-03-01T04:05:32.992Z,8.49
2019-03-01T04:08:02.572Z,8.46
2019-03-01T04:10:32.069Z,8.55
2019-03-01T04:13:01.551Z,8.50
2019-03-01T04:15:31.083Z,8.47
2019-03-01T04:18:00.601Z,8.44
2019-03-01T04:20:30.214Z,8.36
2019-03-01T04:22:59.734Z,8.40
2019-03-01T04:25:30.274Z,8.34
2019-03-01T04:27:59.779Z,8.41
2019-03-01T04:30:29.289Z,8.50
2019-03-01T04:32:59.025Z,8.42
2019-03-01T04:35:28.540Z,8.43
2019-03-01T04:37:58.467Z,8.59
2019-03-01T04:40:28.013Z,8.52
2019-03-01T04:42:57.523Z,8.52
2019-03-01T04:45:27.032Z,8.54
2019-03-01T04:47:56.567Z,8.50
2019-03-01T04:50:26.783Z,8.56
2019-03-01T04:52:56.354Z,8.41
2019-03-01T04:55:27.211Z,8.46
2019-03-01T04:57:56.732Z,8.53
2019-03-01T05:00:26.611Z,8.44
2019-03-01T05:02:56.108Z,8.38
2019-03-01T05:05:26.410Z,8.38
2019-03-01T05:07:55.964Z,8.33
2019-03-01T05:10:25.502Z,8.21
2019-03-01T05:12:54.994Z,8.17
2019-03-01T05:15:27.542Z,8.23
2019-03-01T05:17:58.304Z,8.23
2019-03-01T05:20:29.789Z,8.17
2019-03-01T05:22:59.032Z,8.14
2019-03-01T05:25:28.551Z,8.22
2019-03-01T05:27:58.056Z,8.15
2019-03-01T05:30:27.579Z,8.08
2019-03-01T05:32:57.118Z,8.28
2019-03-01T05:35:26.633Z,8.22
2019-03-01T05:37:56.163Z,8.12
2019-03-01T05:40:25.701Z,8.08
2019-03-01T05:42:55.210Z,7.84
2019-03-01T05:45:30.415Z,7.80
2019-03-01T05:47:59.940Z,7.72
2019-03-01T05:50:29.459Z,7.60
2019-03-01T05:52:58.965Z,7.53
2019-03-01T05:55:28.475Z,7.43
2019-03-01T05:58:27.285Z,7.66
2019-03-01T06:01:19.091Z,7.68
2019-03-01T06:04:04.909Z,7.34
2019-03-01T06:07:22.616Z,7.21
2019-03-01T06:10:02.598Z,7.41
2019-03-01T06:12:48.050Z,7.36
2019-03-01T06:15:38.543Z,7.38
2019-03-01T06:18:39.360Z,7.56
2019-03-01T06:21:19.595Z,7.42
2019-03-01T06:24:14.486Z,7.61
2019-03-01T06:27:21.545Z,7.60
2019-03-01T06:29:58.681Z,7.65
2019-03-01T06:32:38.824Z,7.51
2019-03-01T06:35:18.539Z,7.46
2019-03-01T06:38:01.779Z,7.28
2019-03-01T06:41:03.795Z,7.13
2019-03-01T06:44:01.588Z,7.10
2019-03-01T06:46:47.299Z,7.04
2019-03-01T06:49:18.446Z,7.11
2019-03-01T06:51:47.936Z,7.08
2019-03-01T06:54:17.627Z,6.99
2019-03-01T06:56:47.114Z,7.06
2019-03-01T06:59:16.612Z,7.12
2019-03-01T07:01:46.596Z,7.09
2019-03-01T07:04:16.967Z,6.99
2019-03-01T07:06:46.559Z,6.89
2019-03-01T07:09:16.070Z,7.01
2019-03-01T07:11:45.551Z,6.90
2019-03-01T07:14:15.063Z,6.86
2019-03-01T07:16:44.566Z,7.04
2019-03-01T07:19:14.072Z,7.10
2019-03-01T07:21:43.581Z,6.98
2019-03-01T07:24:13.168Z,7.19
2019-03-01T07:26:42.686Z,7.09
2019-03-01T07:29:12.213Z,7.28
2019-03-01T07:31:41.937Z,7.44
2019-03-01T07:34:11.472Z,7.24
2019-03-01T07:36:40.994Z,7.18
2019-03-01T07:39:11.127Z,7.38
2019-03-01T07:41:40.614Z,7.20
2019-03-01T07:44:10.135Z,7.16
2019-03-01T07:46:39.623Z,7.06
2019-03-01T07:49:09.137Z,6.95
2019-03-01T07:51:38.641Z,7.04
2019-03-01T07:54:08.155Z,7.02
2019-03-01T07:56:39.902Z,7.13
2019-03-01T07:59:10.159Z,7.00
2019-03-01T08:01:39.646Z,7.14
2019-03-01T08:04:09.161Z,7.06
2019-03-01T08:06:38.702Z,6.93
2019-03-01T08:09:13.554Z,6.92
2019-03-01T08:11:43.067Z,6.88
2019-03-01T08:14:12.576Z,6.88
2019-03-01T08:16:42.118Z,6.91
2019-03-01T08:19:11.648Z,6.78
2019-03-01T08:21:42.752Z,6.79
2019-03-01T08:24:12.385Z,6.73
2019-03-01T08:26:42.822Z,6.60
2019-03-01T08:29:12.351Z,6.59
2019-03-01T08:31:41.815Z,6.55
2019-03-01T08:34:14.366Z,6.52
2019-03-01T08:36:43.530Z,6.48
2019-03-01T08:39:13.214Z,6.50
2019-03-01T08:41:42.765Z,6.48
2019-03-01T08:44:12.268Z,6.45
2019-03-01T08:46:45.228Z,6.61
2019-03-01T08:49:13.022Z,6.49
2019-03-01T08:51:43.242Z,6.68
2019-03-01T08:54:12.755Z,6.75
2019-03-01T08:56:42.256Z,6.54
2019-03-01T08:59:14.194Z,6.55
2019-03-01T09:01:45.035Z,6.69
2019-03-01T09:04:17.438Z,6.65
2019-03-01T09:06:46.960Z,6.42
2019-03-01T09:09:17.742Z,6.58
2019-03-01T09:11:48.099Z,6.62
2019-03-01T09:14:17.584Z,6.40
2019-03-01T09:16:47.203Z,6.63
2019-03-01T09:19:16.744Z,6.67
2019-03-01T09:21:50.310Z,6.56
2019-03-01T09:24:17.518Z,6.56
2019-03-01T09:26:47.045Z,6.56
2019-03-01T09:29:18.526Z,6.66
2019-03-01T09:31:47.803Z,6.73
2019-03-01T09:34:17.315Z,7.03
2019-03-01T09:36:51.450Z,7.02
2019-03-01T09:39:19.833Z,6.87
2019-03-01T09:41:49.360Z,6.71
2019-03-01T09:44:18.859Z,6.78
2019-03-01T09:46:48.402Z,6.61
2019-03-01T09:49:17.884Z,6.46
2019-03-01T09:51:49.906Z,6.43
2019-03-01T09:54:18.670Z,6.38
2019-03-01T09:56:48.455Z,6.34
2019-03-01T09:59:18.227Z,6.24
2019-03-01T10:01:47.742Z,6.12
2019-03-01T10:04:18.522Z,6.18
2019-03-01T10:06:48.003Z,6.19
2019-03-01T10:09:17.502Z,6.17
2019-03-01T10:11:47.015Z,6.10
2019-03-01T10:14:16.530Z,6.30
2019-03-01T10:16:47.118Z,6.25
2019-03-01T10:19:16.634Z,6.08
2019-03-01T10:21:46.138Z,5.90
2019-03-01T10:24:15.633Z,5.93
2019-03-01T10:26:45.153Z,6.10
2019-03-01T10:29:15.217Z,5.92
2019-03-01T10:31:44.766Z,5.98
2019-03-01T10:34:14.260Z,6.01
2019-03-01T10:36:43.782Z,5.95
2019-03-01T10:39:14.536Z,6.06
2019-03-01T10:41:44.039Z,6.10
2019-03-01T10:44:13.540Z,6.14
2019-03-01T10:46:43.054Z,6.31
2019-03-01T10:49:12.570Z,6.15
2019-03-01T10:51:42.069Z,6.23
2019-03-01T10:54:11.770Z,6.69
2019-03-01T10:56:41.263Z,6.80
2019-03-01T10:59:10.756Z,6.82
2019-03-01T11:01:40.292Z,6.96
2019-03-01T11:04:09.781Z,6.69
2019-03-01T11:06:40.526Z,7.11
2019-03-01T11:09:10.031Z,6.63
2019-03-01T11:11:41.210Z,6.72
2019-03-01T11:14:11.030Z,6.53
2019-03-01T11:16:40.522Z,6.55
2019-03-01T11:19:10.014Z,6.31
2019-03-01T11:21:39.562Z,6.32
2019-03-01T11:24:09.073Z,6.45
2019-03-01T11:26:38.602Z,6.31
2019-03-01T11:29:08.097Z,5.89
2019-03-01T11:31:37.639Z,5.93
2019-03-01T11:34:07.128Z,5.82
2019-03-01T11:36:36.666Z,5.89
2019-03-01T11:39:06.814Z,5.79
2019-03-01T11:41:36.422Z,5.95
2019-03-01T11:44:05.979Z,6.02
2019-03-01T11:46:35.468Z,6.09
2019-03-01T11:49:04.983Z,5.98
2019-03-01T11:51:34.537Z,6.37
2019-03-01T11:54:04.261Z,6.20
2019-03-01T11:56:33.783Z,6.31
2019-03-01T11:59:03.275Z,6.68
2019-03-01T12:01:32.858Z,6.59
2019-03-01T12:04:02.350Z,6.45
2019-03-01T12:06:31.868Z,6.47
2019-03-01T12:09:01.359Z,6.61
2019-03-01T12:11:31.102Z,6.63
2019-03-01T12:14:00.650Z,6.91
2019-03-01T12:16:30.162Z,6.83
2019-03-01T12:18:59.648Z,7.05
2019-03-01T12:21:29.164Z,7.70
2019-03-01T12:23:58.686Z,8.09
2019-03-01T12:26:28.184Z,7.58
2019-03-01T12:28:57.688Z,7.74
2019-03-01T12:31:27.176Z,7.44
2019-03-01T12:33:57.933Z,7.16
2019-03-01T12:36:27.452Z,6.90
2019-03-01T12:38:56.953Z,6.90
2019-03-01T12:41:26.530Z,7.33
2019-03-01T12:43:56.043Z,7.54
2019-03-01T12:46:26.549Z,7.80
2019-03-01T12:48:56.056Z,7.72
2019-03-01T12:51:25.556Z,8.09
2019-03-01T12:53:55.069Z,8.24
2019-03-01T12:56:24.583Z,8.51
2019-03-01T12:58:54.889Z,8.24
2019-03-01T13:01:24.374Z,8.25
2019-03-01T13:03:53.885Z,8.68
2019-03-01T13:06:23.389Z,8.52
2019-03-01T13:08:52.960Z,8.30
2019-03-01T13:11:23.257Z,9.35
2019-03-01T13:13:52.783Z,9.66
2019-03-01T13:16:23.443Z,10.01
2019-03-01T13:18:53.517Z,8.79
2019-03-01T13:21:23.021Z,9.18
2019-03-01T13:23:52.550Z,9.32
2019-03-01T13:26:22.037Z,9.77
2019-03-01T13:28:51.563Z,10.00
2019-03-01T13:31:21.218Z,10.27
2019-03-01T13:33:50.777Z,9.94
2019-03-01T13:36:20.284Z,9.12
2019-03-01T13:38:49.893Z,8.55
2019-03-01T13:41:19.502Z,8.30
2019-03-01T13:43:49.024Z,8.78
2019-03-01T13:46:18.571Z,9.26
2019-03-01T13:48:50.940Z,8.96
2019-03-01T13:51:19.295Z,8.72
2019-03-01T13:53:49.342Z,8.08
2019-03-01T13:56:18.920Z,7.98
2019-03-01T13:58:48.431Z,8.01
2019-03-01T14:01:17.956Z,7.98
2019-03-01T14:03:47.473Z,8.04
2019-03-01T14:06:17.131Z,7.81
2019-03-01T14:08:46.664Z,7.48
2019-03-01T14:11:20.807Z,7.81
2019-03-01T14:13:47.643Z,8.05
2019-03-01T14:16:20.379Z,7.80
2019-03-01T14:18:50.301Z,7.83
2019-03-01T14:21:19.862Z,7.72
2019-03-01T14:23:49.381Z,7.83
2019-03-01T14:26:19.432Z,7.57
2019-03-01T14:28:48.968Z,7.74
2019-03-01T14:31:18.497Z,7.75
2019-03-01T14:33:48.147Z,7.61
2019-03-01T14:36:17.643Z,7.46
2019-03-01T14:38:47.184Z,7.54
2019-03-01T14:41:16.706Z,7.51
2019-03-01T14:43:46.232Z,7.44
2019-03-01T14:46:17.679Z,7.39
2019-03-01T14:48:48.155Z,7.22
2019-03-01T14:51:17.639Z,7.15
2019-03-01T14:53:47.292Z,7.15
2019-03-01T14:56:22.062Z,7.23
2019-03-01T14:59:08.166Z,7.16
2019-03-01T15:01:45.019Z,7.12
2019-03-01T15:04:14.539Z,7.19
2019-03-01T15:06:44.231Z,7.43
2019-03-01T15:09:16.985Z,7.34
2019-03-01T15:11:46.074Z,7.33
2019-03-01T15:14:15.582Z,7.13
2019-03-01T15:16:45.262Z,6.88
2019-03-01T15:19:14.786Z,6.75
2019-03-01T15:21:44.285Z,7.08
2019-03-01T15:24:13.793Z,6.96
2019-03-01T15:26:46.205Z,6.63
2019-03-01T15:29:14.680Z,6.72
2019-03-01T15:31:44.170Z,6.68
2019-03-01T15:34:14.077Z,6.56
2019-03-01T15:36:43.599Z,6.72
2019-03-01T15:39:13.120Z,6.69
2019-03-01T15:41:45.707Z,6.60
2019-03-01T15:44:15.399Z,6.63
2019-03-01T15:46:46.422Z,6.63
2019-03-01T15:49:16.282Z,6.64
2019-03-01T15:51:45.798Z,6.51
2019-03-01T15:54:15.308Z,6.62
2019-03-01T15:56:44.840Z,6.69
2019-03-01T15:59:14.388Z,6.46
2019-03-01T16:01:47.226Z,6.47
2019-03-01T16:04:15.151Z,6.47
2019-03-01T16:06:44.645Z,6.61
2019-03-01T16:09:16.040Z,6.38
2019-03-01T16:11:45.562Z,6.35
2019-03-01T16:14:15.119Z,6.45
2019-03-01T16:16:45.744Z,6.25
2019-03-01T16:19:15.977Z,6.28
2019-03-01T16:21:45.514Z,6.37
2019-03-01T16:24:15.063Z,6.38
2019-03-01T16:26:44.562Z,6.37
2019-03-01T16:29:14.077Z,6.36
2019-03-01T16:31:43.638Z,6.53
2019-03-01T16:34:13.159Z,6.41
2019-03-01T16:36:44.320Z,6.22
2019-03-01T16:39:13.983Z,6.25
2019-03-01T16:41:44.777Z,6.33
2019-03-01T16:44:14.307Z,6.24
2019-03-01T16:46:43.798Z,6.18
2019-03-01T16:49:13.565Z,6.24
2019-03-01T16:51:43.084Z,6.34
2019-03-01T16:54:16.351Z,6.20
2019-03-01T16:56:46.077Z,6.28
2019-03-01T16:59:15.595Z,6.40
2019-03-01T17:01:45.139Z,6.23
2019-03-01T17:04:14.642Z,6.31
2019-03-01T17:06:45.504Z,6.20
2019-03-01T17:09:16.611Z,6.14
2019-03-01T17:11:46.214Z,6.16
2019-03-01T17:14:16.012Z,6.10
2019-03-01T17:16:45.630Z,6.20
2019-03-01T17:19:15.168Z,5.95
2019-03-01T17:21:50.586Z,6.02
2019-03-01T17:24:16.583Z,5.94
2019-03-01T17:26:46.134Z,5.90
2019-03-01T17:29:15.654Z,5.95
2019-03-01T17:31:45.241Z,5.94
2019-03-01T17:34:14.738Z,6.02
2019-03-01T17:36:44.305Z,5.98
2019-03-01T17:39:16.635Z,5.96
2019-03-01T17:41:48.251Z,5.99
2019-03-01T17:44:16.356Z,5.95
2019-03-01T17:46:45.885Z,5.88
2019-03-01T17:49:15.918Z,6.00
2019-03-01T17:51:45.434Z,5.83
2019-03-01T17:54:14.953Z,5.76
2019-03-01T17:56:44.479Z,5.79
2019-03-01T17:59:13.975Z,5.69
2019-03-01T18:01:44.326Z,5.72
2019-03-01T18:04:13.841Z,5.52
2019-03-01T18:06:43.369Z,5.49
2019-03-01T18:09:13.352Z,5.58
2019-03-01T18:11:44.674Z,5.54
2019-03-01T18:14:14.955Z,5.54
2019-03-01T18:16:44.504Z,5.61
2019-03-01T18:19:14.003Z,5.43
2019-03-01T18:21:46.435Z,5.47
2019-03-01T18:24:15.251Z,5.51
2019-03-01T18:26:44.784Z,5.54
2019-03-01T18:29:14.311Z,5.55
2019-03-01T18:31:43.850Z,5.56
2019-03-01T18:34:13.367Z,5.52
2019-03-01T18:36:42.886Z,5.48
2019-03-01T18:39:12.531Z,5.40
2019-03-01T18:41:43.628Z,5.26
2019-03-01T18:44:13.145Z,5.18
2019-03-01T18:46:42.731Z,5.20
2019-03-01T18:49:12.255Z,5.23
2019-03-01T18:51:43.449Z,5.26
2019-03-01T18:54:13.045Z,5.21
2019-03-01T18:56:42.636Z,5.29
2019-03-01T18:59:12.158Z,5.22
2019-03-01T19:01:42.971Z,5.37
2019-03-01T19:04:16.745Z,5.24
2019-03-01T19:06:44.245Z,5.25
2019-03-01T19:09:16.451Z,5.37
2019-03-01T19:11:45.118Z,5.24
2019-03-01T19:14:14.676Z,5.26
2019-03-01T19:16:44.221Z,5.34
2019-03-01T19:19:13.785Z,5.32
2019-03-01T19:21:43.319Z,5.37
2019-03-01T19:24:12.844Z,5.26
2019-03-01T19:26:42.379Z,5.25
2019-03-01T19:29:11.893Z,5.14
2019-03-01T19:31:41.450Z,5.26
2019-03-01T19:34:12.997Z,5.20
2019-03-01T19:36:44.039Z,5.18
2019-03-01T19:39:20.437Z,5.03
2019-03-01T19:41:49.962Z,5.11
2019-03-01T19:44:19.477Z,5.19
2019-03-01T19:46:51.387Z,5.21
2019-03-01T19:49:20.391Z,5.29
2019-03-01T19:51:49.894Z,5.26
2019-03-01T19:54:19.427Z,5.15
2019-03-01T19:56:48.958Z,5.18
2019-03-01T19:59:18.489Z,5.20
2019-03-01T20:01:49.491Z,5.21
2019-03-01T20:04:21.233Z,5.15
2019-03-01T20:06:51.118Z,5.27
2019-03-01T20:09:20.700Z,5.38
2019-03-01T20:11:50.192Z,5.46
2019-03-01T20:14:19.996Z,5.46
2019-03-01T20:16:50.289Z,5.42
2019-03-01T20:19:21.027Z,5.29
2019-03-01T20:21:51.089Z,5.22
2019-03-01T20:24:20.613Z,5.26
2019-03-01T20:26:50.113Z,5.21
2019-03-01T20:29:19.652Z,5.37
2019-03-01T20:31:49.155Z,5.31
2019-03-01T20:34:18.755Z,5.27
2019-03-01T20:36:49.629Z,5.24
2019-03-01T20:39:20.503Z,5.19
2019-03-01T20:41:50.039Z,5.17
2019-03-01T20:44:19.892Z,5.13
2019-03-01T20:46:49.467Z,5.04
2019-03-01T20:49:19.008Z,5.13
2019-03-01T20:51:48.510Z,5.18
2019-03-01T20:54:18.029Z,5.23
2019-03-01T20:56:47.941Z,5.18
2019-03-01T20:59:19.301Z,5.18
2019-03-01T21:01:48.880Z,5.27
2019-03-01T21:04:18.432Z,5.26
2019-03-01T21:06:47.945Z,5.21
2019-03-01T21:09:19.204Z,5.25
2019-03-01T21:11:48.744Z,5.39
2019-03-01T21:14:18.256Z,5.26
2019-03-01T21:16:47.772Z,5.36
2019-03-01T21:19:17.305Z,5.26
2019-03-01T21:21:46.807Z,5.42
2019-03-01T21:24:16.341Z,5.36
2019-03-01T21:26:47.937Z,5.42
2019-03-01T21:29:17.097Z,5.25
2019-03-01T21:31:46.619Z,5.26
2019-03-01T21:34:16.432Z,5.34
2019-03-01T21:36:45.957Z,5.33
2019-03-01T21:39:15.472Z,5.33
2019-03-01T21:41:48.142Z,5.24
2019-03-01T21:44:17.644Z,5.25
2019-03-01T21:46:47.236Z,5.20
2019-03-01T21:49:16.745Z,5.17
2019-03-01T21:51:46.242Z,5.22
2019-03-01T21:54:16.467Z,5.23
2019-03-01T21:56:55.826Z,5.18
2019-03-01T21:59:18.538Z,5.20
2019-03-01T22:01:48.090Z,5.20
2019-03-01T22:04:17.660Z,5.17
2019-03-01T22:06:47.167Z,5.23
2019-03-01T22:09:16.986Z,5.24
2019-03-01T22:11:49.230Z,5.20
2019-03-01T22:14:17.734Z,5.32
2019-03-01T22:16:47.236Z,5.17
2019-03-01T22:19:16.797Z,5.18
2019-03-01T22:21:46.365Z,5.33
2019-03-01T22:24:15.925Z,5.30
2019-03-01T22:26:46.604Z,5.36
2019-03-01T22:29:16.206Z,5.32
2019-03-01T22:31:45.742Z,5.32
2019-03-01T22:34:15.293Z,5.43
2019-03-01T22:36:44.773Z,5.41
2019-03-01T22:39:16.569Z,5.39
2019-03-01T22:41:46.175Z,5.37
2019-03-01T22:44:15.719Z,5.30
2019-03-01T22:46:45.292Z,5.35
2019-03-01T22:49:14.798Z,5.39
2019-03-01T22:51:44.334Z,5.30
2019-03-01T22:54:14.623Z,5.49
2019-03-01T22:56:48.440Z,5.40
2019-03-01T22:59:16.576Z,5.29
2019-03-01T23:01:46.202Z,5.34
2019-03-01T23:04:15.749Z,5.38
2019-03-01T23:06:47.516Z,5.50
2019-03-01T23:09:17.254Z,5.40
2019-03-01T23:11:46.762Z,5.31
2019-03-01T23:14:16.283Z,5.40
2019-03-01T23:16:45.879Z,5.43
2019-03-01T23:19:16.194Z,5.43
2019-03-01T23:21:46.580Z,5.48
2019-03-01T23:24:16.136Z,5.59
2019-03-01T23:26:45.636Z,5.49
2019-03-01T23:29:15.607Z,5.40
2019-03-01T23:31:46.416Z,5.44
2019-03-01T23:34:15.914Z,5.68
2019-03-01T23:36:45.456Z,5.40
2019-03-01T23:39:14.976Z,5.46
2019-03-01T23:41:46.302Z,5.35
2019-03-01T23:44:16.073Z,5.46
2019-03-01T23:46:45.604Z,5.36
2019-03-01T23:49:15.130Z,5.25
2019-03-01T23:51:45.410Z,5.34
2019-03-01T23:54:15.650Z,5.37
2019-03-01T23:56:45.177Z,5.31
2019-03-01T23:59:14.684Z,5.37
